Nearby METAR Reports

 

KBUF - Buffalo/Cheektow, New York, USA
Distance from station: ENE 2mi, 3km
Updated: 06/20/2018 12:54pm
Light rain, Overcast
Light rain, Overcast
 Wind from varies
Wind: varies 5 mph , 7 km/h
Temperature: 72°F , 22°C
Dew Point: 55°F , 13°C
Humidity: 57%
Barometer: 29.89 inHg , 1012.2 hPa
Summary: Light rain
Clouds: Overcast
Visibility: 10 miles , 16 km
Cloud details: Few Clouds 8000 ft
Mostly cloudy 10000 ft
Mostly cloudy 12000 ft
Overcast 16000 ft
2018/06/20 16:54 KBUF 201654Z VRB04KT 10SM -RA FEW080 BKN100 BKN120 OVC160 22/13 A2989 RMK AO2 RAB32 SLP119 PCPN VRY LGT P0000 T02170128
KIAG - Niagara Falls, New York, USA
Distance from station: NNW 16mi, 25km
Updated: 06/20/2018 12:53pm
Clear
Clear
 Wind from ENE
Wind: ENE 3 mph , 6 km/h
Temperature: 72°F , 22°C
Dew Point: 55°F , 13°C
Humidity: 57%
Barometer: 29.88 inHg , 1011.9 hPa
Clouds: Clear
Visibility: 10 miles , 16 km
2018/06/20 16:53 KIAG 201653Z 07003KT 10SM CLR 22/13 A2988 RMK AO2 RAB01E21 SLP116 P0000 T02220128
 
CYSN - St. Catharines A, Ontario, Canada
Distance from station: NW 28mi, 45km
Updated: 06/20/2018 12:00pm
Overcast
Overcast
 Wind from NNW
Wind: NNW 10 mph , 17 km/h
Temperature: 64°F , 18°C
Dew Point: 61°F , 16°C
Humidity: 88%
Barometer: 29.89 inHg , 1012.2 hPa
Clouds: Overcast
Visibility: 15 miles , 24 km
Cloud details: Mostly cloudy 13000 ft
Overcast 25000 ft
2018/06/20 16:00 CYSN 201600Z 34009KT 15SM BKN130 OVC250 18/16 A2989 RMK AC5CI3 SLP123 DENSITY ALT 900FT
CWWZ - Port Weller (mar, Ontario, Canada
Distance from station: NW 32mi, 51km
Updated: 06/20/2018 12:00pm

 Wind from NNW
Wind: NNW 9 mph , 15 km/h
Temperature: 66°F , 19°C
Dew Point: 61°F , 16°C
Humidity: 83%
2018/06/20 16:00 CWWZ 201600Z AUTO 34008KT 19/16 RMK AO1 SLP123 T01940164 55005
 
CXVN - Vineland (au8), Ontario, Canada
Distance from station: WNW 37mi, 59km
Updated: 06/20/2018 12:00pm

 Wind from NNW
Wind: NNW 6 mph , 9 km/h
Temperature: 64°F , 18°C
Dew Point: 57°F , 14°C
Humidity: 78%
2018/06/20 16:00 CXVN 201600Z AUTO 34005KT 18/14 RMK AO1 5007 SLP116 T01770136 50001
KDKK - Dunkirk, New York, USA
Distance from station: SW 39mi, 63km
Updated: 06/20/2018 12:53pm
Overcast
Overcast
 Wind from SSE
Wind: SSE 3 mph , 6 km/h
Temperature: 66°F , 19°C
Dew Point: 61°F , 16°C
Humidity: 83%
Barometer: 29.87 inHg , 1011.5 hPa
Clouds: Overcast
Visibility: 10 miles , 16 km
Cloud details: Overcast 7500 ft
2018/06/20 16:53 KDKK 201653Z AUTO 16003KT 10SM OVC075 19/16 A2987 RMK AO2 RAE50 SLP115 P0000 T01890161
 
KOLE - Olean, New York, USA
Distance from station: SSE 52mi, 83km
Updated: 06/20/2018 12:55pm
Rain, Overcast
Rain, Overcast
 Wind from calm
Wind: Calm
Temperature: 59°F , 15°C
Dew Point: 54°F , 12°C
Humidity: 82%
Barometer: 29.92 inHg , 1013.2 hPa
Summary: Rain
Clouds: Overcast
Visibility: 10 miles , 16 km
Cloud details: Overcast 6000 ft
2018/06/20 16:55 KOLE 201655Z AUTO 00000KT 10SM RA OVC060 15/12 A2992 RMK AO2
KROC - Rochester, New York, USA
Distance from station: ENE 56mi, 91km
Updated: 06/20/2018 12:54pm
Overcast
Overcast
 Wind from calm
Wind: Calm
Temperature: 70°F , 21°C
Dew Point: 54°F , 12°C
Humidity: 57%
Barometer: 29.89 inHg , 1012.2 hPa
Clouds: Overcast
Visibility: 10 miles , 16 km
Cloud details: Few Clouds 4700 ft
Partly cloudy 9000 ft
Partly cloudy 12000 ft
Overcast 20000 ft
2018/06/20 16:54 KROC 201654Z 00000KT 10SM FEW047 SCT090 SCT120 OVC200 21/12 A2989 RMK AO2 RAE38 SLP124 P0000 T02110122
 
CWWB - Burlington Piers, Ontario, Canada
Distance from station: WNW 57mi, 92km
Updated: 06/20/2018 12:00pm

 Wind from E
Wind: E 3 mph , 6 km/h
Temperature: 64°F , 18°C
Dew Point: 55°F , 13°C
Humidity: 73%
2018/06/20 16:00 CWWB 201600Z AUTO 09003KT 18/13 RMK AO1 SLP120 T01830130 56009
CYTZ - Toronto Il Vor, Ontario, Canada
Distance from station: NNW 58mi, 94km
Updated: 06/20/2018 12:00pm
Clear
Clear
 Wind from SSW
Wind: SSW 3 mph , 6 km/h
Temperature: 66°F , 19°C
Dew Point: 55°F , 13°C
Humidity: 68%
Barometer: 29.89 inHg , 1012.2 hPa
Clouds: Clear
Visibility: 9 miles , 14 km
2018/06/20 16:00 CYTZ 201600Z AUTO 21003KT 9SM CLR 19/13 A2989 RMK SLP123 DENSITY ALT 700FT
 
KDSV - Dansville, New York, USA
Distance from station: ESE 59mi, 95km
Updated: 06/20/2018 12:54pm
Overcast
Overcast
 Wind from SSE
Wind: SSE 5 mph , 7 km/h
Temperature: 72°F , 22°C
Dew Point: 55°F , 13°C
Humidity: 57%
Barometer: 29.88 inHg , 1011.9 hPa
Clouds: Overcast
Visibility: 10 miles , 16 km
Cloud details: Overcast 11000 ft
2018/06/20 16:54 KDSV 201654Z AUTO 16004KT 10SM OVC110 22/13 A2988 RMK AO2 SLP125 T02170128
CXTO - Toronto City, Ontario, Canada
Distance from station: NNW 60mi, 97km
Updated: 06/20/2018 12:00pm

 
Temperature: 70°F , 21°C
Dew Point: 50°F , 10°C
Humidity: 50%
2018/06/20 16:00 CXTO 201600Z AUTO 21/10 RMK AO1 SLP122 T02090100 55006
 
KJHW - Jamestown, New York, USA
Distance from station: SSW 60mi, 97km
Updated: 06/20/2018 12:56pm
Light rain, Overcast
Light rain, Overcast
 Wind from NNE
Wind: NNE 6 mph , 9 km/h
Temperature: 63°F , 17°C
Dew Point: 52°F , 11°C
Humidity: 68%
Barometer: 29.90 inHg , 1012.5 hPa
Summary: Light rain
Clouds: Overcast
Visibility: 10 miles , 16 km
Cloud details: Few Clouds 3400 ft
Mostly cloudy 4600 ft
Overcast 9500 ft
2018/06/20 16:56 KJHW 201656Z AUTO 02005KT 10SM -RA FEW034 BKN046 OVC095 17/11 A2990 RMK AO2 RAB04 SLP124 P0001 T01670106
CYHM - Hamilton Airport, Ontario, Canada
Distance from station: WNW 61mi, 98km
Updated: 06/20/2018 12:00pm
Overcast
Overcast
 Wind from W
Wind: W 6 mph , 9 km/h, Gust: 18 mph , 30 km/h
Temperature: 64°F , 18°C
Dew Point: 55°F , 13°C
Humidity: 73%
Barometer: 29.91 inHg , 1012.9 hPa
Clouds: Overcast
Visibility: 15 miles , 24 km
Cloud details: Mostly cloudy 3900 ft
Mostly cloudy 4500 ft
Overcast 13000 ft
2018/06/20 16:00 CYHM 201600Z 27005G16KT 220V020 15SM BKN039 BKN045 OVC130 18/13 A2991 RMK SC5SC2AC1 SLP129 DENSITY ALT 1400FT
 
CXHM - Hamilton Rbg Cs, Ontario, Canada
Distance from station: WNW 62mi, 100km
Updated: 06/20/2018 12:00pm

 Wind from SSE
Wind: SSE 1 mph , 2 km/h
Temperature: 68°F , 20°C
Dew Point: 57°F , 14°C
Humidity: 69%
2018/06/20 16:00 CXHM 201600Z AUTO 15001KT 20/14 RMK AO1 SLP117 T01970143 55010
CYYZ - Toronto/Pearson, Ontario, Canada
Distance from station: NW 67mi, 107km
Updated: 06/20/2018 12:00pm
Mostly cloudy
Mostly cloudy
 Wind from varies
Wind: varies 2 mph , 4 km/h
Temperature: 68°F , 20°C
Dew Point: 50°F , 10°C
Humidity: 53%
Barometer: 29.89 inHg , 1012.2 hPa
Clouds: Mostly cloudy
Visibility: 15 miles , 24 km
Cloud details: Partly cloudy 21000 ft
Mostly cloudy 26000 ft
2018/06/20 16:00 CYYZ 201600Z VRB02KT 15SM SCT210 BKN260 20/10 A2989 RMK CI3CI4 SLP123 DENSITY ALT 1400FT
 
CWPS - Long Point (maps, Ontario, Canada
Distance from station: WSW 69mi, 111km
Updated: 06/20/2018 12:00pm

 Wind from ENE
Wind: ENE 6 mph , 9 km/h
Temperature: 63°F , 17°C
Dew Point: 57°F , 14°C
Humidity: 83%
2018/06/20 16:00 CWPS 201600Z AUTO 06005KT 17/14 RMK AO1 SLP116 T01710140 58004
CYOO - Oshawa, Ontario, Canada
Distance from station: N 69mi, 111km
Updated: 06/20/2018 12:00pm
Few Clouds
Few Clouds
 Wind from WNW
Wind: WNW 3 mph , 6 km/h
Temperature: 70°F , 21°C
Dew Point: 52°F , 11°C
Humidity: 53%
Barometer: 29.88 inHg , 1011.9 hPa
Clouds: Few Clouds
Visibility: 9 miles , 14 km
Cloud details: Few Clouds 21000 ft
2018/06/20 16:00 CYOO 201600Z AUTO 29003KT 260V010 9SM FEW210 21/11 A2988 RMK SLP120 DENSITY ALT 1300FT
 
KELZ - Wellsville, New York, USA
Distance from station: SE 70mi, 112km
Updated: 06/20/2018 12:56pm
Light rain, Overcast
Light rain, Overcast
 Wind from N
Wind: N 3 mph , 6 km/h
Temperature: 64°F , 18°C
Dew Point: 59°F , 15°C
Humidity: 83%
Barometer: 29.93 inHg , 1013.5 hPa
Summary: Light rain
Clouds: Overcast
Visibility: 8 miles , 13 km
Cloud details: Overcast 6500 ft
2018/06/20 16:56 KELZ 201656Z AUTO 35003KT 8SM -RA OVC065 18/15 A2993 RMK AO2 RAB05 SLP131 P0001 T01780150
CYKZ - Toronto Buttonvi, Ontario, Canada
Distance from station: NNW 72mi, 116km
Updated: 06/20/2018 12:00pm
Overcast
Overcast
 Wind from calm
Wind: Calm
Temperature: 72°F , 22°C
Dew Point: 52°F , 11°C
Humidity: 50%
Barometer: 29.89 inHg , 1012.2 hPa
Clouds: Overcast
Visibility: 15 miles , 24 km
Cloud details: Few Clouds 4500 ft
Overcast 26000 ft
2018/06/20 16:00 CYKZ 201600Z 00000KT 15SM FEW045 OVC260 22/11 A2989 RMK CU1CS8 CU TR SLP123 DENSITY ALT 1700FT